sensor_id;sensor_type;location;lat;lon;timestamp;pressure;altitude;pressure_sealevel;temperature;humidity
71917;BME280;59793;46.506;6.674;2023-06-14T00:02:08;96355.75;;;20.97;33.68
71917;BME280;59793;46.506;6.674;2023-06-14T00:04:35;96353.59;;;20.80;33.38
71917;BME280;59793;46.506;6.674;2023-06-14T00:07:01;96422.56;;;21.17;33.10
71917;BME280;59793;46.506;6.674;2023-06-14T00:09:27;96376.78;;;20.99;33.38
71917;BME280;59793;46.506;6.674;2023-06-14T00:11:52;96409.72;;;21.25;33.17
71917;BME280;59793;46.506;6.674;2023-06-14T00:14:17;96416.84;;;21.03;33.46
71917;BME280;59793;46.506;6.674;2023-06-14T00:16:43;96420.28;;;21.03;33.49
71917;BME280;59793;46.506;6.674;2023-06-14T00:19:09;96416.50;;;21.00;33.42
71917;BME280;59793;46.506;6.674;2023-06-14T00:21:36;96396.31;;;20.83;33.94
71917;BME280;59793;46.506;6.674;2023-06-14T00:24:03;96426.13;;;20.98;34.07
71917;BME280;59793;46.506;6.674;2023-06-14T00:26:29;96423.25;;;21.05;33.66
71917;BME280;59793;46.506;6.674;2023-06-14T00:28:54;96420.72;;;21.14;33.46
71917;BME280;59793;46.506;6.674;2023-06-14T00:31:21;96394.94;;;20.79;33.93
71917;BME280;59793;46.506;6.674;2023-06-14T00:33:46;96406.34;;;20.95;33.82
71917;BME280;59793;46.506;6.674;2023-06-14T00:36:12;96408.41;;;20.75;33.66
71917;BME280;59793;46.506;6.674;2023-06-14T00:38:37;96422.50;;;20.92;33.94
71917;BME280;59793;46.506;6.674;2023-06-14T00:41:03;96427.19;;;20.88;33.59
71917;BME280;59793;46.506;6.674;2023-06-14T00:43:28;96395.53;;;20.70;33.35
71917;BME280;59793;46.506;6.674;2023-06-14T00:45:54;96421.50;;;20.86;33.03
71917;BME280;59793;46.506;6.674;2023-06-14T00:48:20;96430.19;;;20.90;33.55
71917;BME280;59793;46.506;6.674;2023-06-14T00:50:45;96419.34;;;20.81;32.97
71917;BME280;59793;46.506;6.674;2023-06-14T00:53:16;96394.66;;;20.60;32.30
71917;BME280;59793;46.506;6.674;2023-06-14T00:55:43;96430.03;;;20.81;32.95
71917;BME280;59793;46.506;6.674;2023-06-14T00:58:08;96433.34;;;20.72;33.04
71917;BME280;59793;46.506;6.674;2023-06-14T01:00:34;96415.81;;;20.38;32.75
71917;BME280;59793;46.506;6.674;2023-06-14T01:03:01;96394.56;;;20.31;32.47
71917;BME280;59793;46.506;6.674;2023-06-14T01:05:27;96418.31;;;20.45;32.60
71917;BME280;59793;46.506;6.674;2023-06-14T01:13:24;96444.31;;;20.45;32.83
71917;BME280;59793;46.506;6.674;2023-06-14T01:15:52;96427.25;;;20.39;32.26
71917;BME280;59793;46.506;6.674;2023-06-14T01:18:18;96432.22;;;20.57;32.29
71917;BME280;59793;46.506;6.674;2023-06-14T01:20:45;96441.06;;;20.53;32.35
71917;BME280;59793;46.506;6.674;2023-06-14T01:23:21;96441.91;;;20.50;32.20
71917;BME280;59793;46.506;6.674;2023-06-14T01:25:47;96389.75;;;20.10;32.44
71917;BME280;59793;46.506;6.674;2023-06-14T01:28:14;96441.53;;;20.48;32.62
71917;BME280;59793;46.506;6.674;2023-06-14T01:30:42;96446.16;;;20.48;32.80
71917;BME280;59793;46.506;6.674;2023-06-14T01:33:18;96438.72;;;20.56;32.61
71917;BME280;59793;46.506;6.674;2023-06-14T01:35:46;96436.19;;;20.48;32.92
71917;BME280;59793;46.506;6.674;2023-06-14T01:38:13;96452.03;;;20.43;33.67
71917;BME280;59793;46.506;6.674;2023-06-14T01:40:39;96447.41;;;20.43;33.32
71917;BME280;59793;46.506;6.674;2023-06-14T01:43:05;96448.25;;;20.40;33.34
71917;BME280;59793;46.506;6.674;2023-06-14T01:45:32;96417.16;;;20.14;33.74
71917;BME280;59793;46.506;6.674;2023-06-14T01:47:59;96446.25;;;20.28;33.98
71917;BME280;59793;46.506;6.674;2023-06-14T01:50:28;96447.19;;;20.21;34.00
71917;BME280;59793;46.506;6.674;2023-06-14T01:52:55;96433.81;;;20.21;34.18
71917;BME280;59793;46.506;6.674;2023-06-14T01:55:20;96435.63;;;20.24;34.73
71917;BME280;59793;46.506;6.674;2023-06-14T01:57:46;96452.28;;;20.32;34.38
71917;BME280;59793;46.506;6.674;2023-06-14T02:00:13;96450.34;;;20.33;34.71
71917;BME280;59793;46.506;6.674;2023-06-14T02:02:40;96426.63;;;20.02;35.19
71917;BME280;59793;46.506;6.674;2023-06-14T02:05:06;96413.06;;;19.93;34.90
71917;BME280;59793;46.506;6.674;2023-06-14T02:07:31;96447.50;;;20.23;35.13
71917;BME280;59793;46.506;6.674;2023-06-14T02:09:57;96429.63;;;20.04;35.14
71917;BME280;59793;46.506;6.674;2023-06-14T02:12:22;96458.47;;;20.13;35.15
71917;BME280;59793;46.506;6.674;2023-06-14T02:14:48;96454.84;;;20.03;35.64
71917;BME280;59793;46.506;6.674;2023-06-14T02:17:14;96427.09;;;19.80;36.09
71917;BME280;59793;46.506;6.674;2023-06-14T02:19:40;96405.06;;;19.56;36.72
71917;BME280;59793;46.506;6.674;2023-06-14T02:22:05;96461.00;;;19.67;37.79
71917;BME280;59793;46.506;6.674;2023-06-14T02:24:31;96452.16;;;19.50;38.01
71917;BME280;59793;46.506;6.674;2023-06-14T02:26:56;96412.16;;;18.91;38.92
71917;BME280;59793;46.506;6.674;2023-06-14T02:29:21;96455.88;;;19.17;39.43
71917;BME280;59793;46.506;6.674;2023-06-14T02:31:47;96416.03;;;18.86;39.89
71917;BME280;59793;46.506;6.674;2023-06-14T02:34:13;96414.91;;;18.63;40.21
71917;BME280;59793;46.506;6.674;2023-06-14T02:36:39;96421.38;;;18.43;40.01
71917;BME280;59793;46.506;6.674;2023-06-14T02:39:07;96444.38;;;18.33;41.45
71917;BME280;59793;46.506;6.674;2023-06-14T02:41:34;96450.66;;;18.46;41.81
71917;BME280;59793;46.506;6.674;2023-06-14T02:44:00;96449.03;;;18.29;42.03
71917;BME280;59793;46.506;6.674;2023-06-14T02:46:25;96420.50;;;18.02;42.40
71917;BME280;59793;46.506;6.674;2023-06-14T02:48:50;96434.69;;;17.96;43.30
71917;BME280;59793;46.506;6.674;2023-06-14T02:51:16;96459.66;;;18.05;43.53
71917;BME280;59793;46.506;6.674;2023-06-14T02:53:41;96464.94;;;18.09;43.90
71917;BME280;59793;46.506;6.674;2023-06-14T02:56:06;96454.00;;;18.03;44.67
71917;BME280;59793;46.506;6.674;2023-06-14T02:58:32;96440.41;;;17.94;44.74
71917;BME280;59793;46.506;6.674;2023-06-14T03:00:58;96464.13;;;17.88;44.34
71917;BME280;59793;46.506;6.674;2023-06-14T03:03:27;96470.16;;;17.92;44.50
71917;BME280;59793;46.506;6.674;2023-06-14T03:05:53;96464.53;;;17.83;44.57
71917;BME280;59793;46.506;6.674;2023-06-14T03:08:20;96415.16;;;17.48;44.86
71917;BME280;59793;46.506;6.674;2023-06-14T03:10:46;96459.75;;;17.98;44.65
71917;BME280;59793;46.506;6.674;2023-06-14T03:13:15;96472.94;;;18.09;44.51
71917;BME280;59793;46.506;6.674;2023-06-14T03:15:46;96469.41;;;17.92;44.93
71917;BME280;59793;46.506;6.674;2023-06-14T03:18:17;96482.72;;;17.92;44.80
71917;BME280;59793;46.506;6.674;2023-06-14T03:20:45;96466.81;;;17.85;44.48
71917;BME280;59793;46.506;6.674;2023-06-14T03:23:11;96480.84;;;17.89;43.87
71917;BME280;59793;46.506;6.674;2023-06-14T03:25:37;96481.66;;;17.86;43.13
71917;BME280;59793;46.506;6.674;2023-06-14T03:28:04;96469.63;;;17.74;43.00
71917;BME280;59793;46.506;6.674;2023-06-14T03:30:30;96410.84;;;17.27;43.51
71917;BME280;59793;46.506;6.674;2023-06-14T03:32:55;96424.66;;;17.18;43.59
71917;BME280;59793;46.506;6.674;2023-06-14T03:35:22;96479.69;;;17.59;43.13
71917;BME280;59793;46.506;6.674;2023-06-14T03:37:47;96484.75;;;17.50;42.99
71917;BME280;59793;46.506;6.674;2023-06-14T03:40:18;96471.56;;;17.39;43.37
71917;BME280;59793;46.506;6.674;2023-06-14T03:42:44;96447.50;;;17.47;43.73
71917;BME280;59793;46.506;6.674;2023-06-14T03:45:09;96486.84;;;17.97;43.05
71917;BME280;59793;46.506;6.674;2023-06-14T03:47:35;96484.72;;;18.11;43.51
71917;BME280;59793;46.506;6.674;2023-06-14T03:50:02;96498.34;;;18.40;43.43
71917;BME280;59793;46.506;6.674;2023-06-14T03:52:27;96498.19;;;18.51;42.68
71917;BME280;59793;46.506;6.674;2023-06-14T03:54:53;96487.63;;;18.44;42.32
71917;BME280;59793;46.506;6.674;2023-06-14T03:57:19;96496.75;;;18.47;43.24
71917;BME280;59793;46.506;6.674;2023-06-14T03:59:45;96488.69;;;18.50;43.61
71917;BME280;59793;46.506;6.674;2023-06-14T04:02:10;96509.47;;;18.62;43.92
71917;BME280;59793;46.506;6.674;2023-06-14T04:04:38;96504.66;;;18.27;42.77
71917;BME280;59793;46.506;6.674;2023-06-14T04:07:04;96507.94;;;18.38;42.52
71917;BME280;59793;46.506;6.674;2023-06-14T04:09:30;96510.13;;;18.43;42.88
71917;BME280;59793;46.506;6.674;2023-06-14T04:11:55;96514.97;;;18.52;43.97
71917;BME280;59793;46.506;6.674;2023-06-14T04:14:21;96521.88;;;18.49;42.52
71917;BME280;59793;46.506;6.674;2023-06-14T04:16:48;96522.53;;;18.30;42.48
71917;BME280;59793;46.506;6.674;2023-06-14T04:19:14;96504.56;;;17.80;42.73
71917;BME280;59793;46.506;6.674;2023-06-14T04:21:39;96528.56;;;17.80;43.07
71917;BME280;59793;46.506;6.674;2023-06-14T04:24:05;96537.16;;;17.60;43.67
71917;BME280;59793;46.506;6.674;2023-06-14T04:26:31;96523.91;;;17.53;43.37
71917;BME280;59793;46.506;6.674;2023-06-14T04:28:59;96500.19;;;17.32;43.22
71917;BME280;59793;46.506;6.674;2023-06-14T04:31:29;96538.31;;;17.56;43.93
71917;BME280;59793;46.506;6.674;2023-06-14T04:33:55;96540.25;;;17.55;44.58
71917;BME280;59793;46.506;6.674;2023-06-14T04:36:20;96532.91;;;17.63;45.10
71917;BME280;59793;46.506;6.674;2023-06-14T04:38:46;96498.47;;;17.49;44.78
71917;BME280;59793;46.506;6.674;2023-06-14T04:41:12;96494.19;;;17.55;44.91
71917;BME280;59793;46.506;6.674;2023-06-14T04:43:39;96553.66;;;17.82;44.42
71917;BME280;59793;46.506;6.674;2023-06-14T04:46:05;96548.38;;;17.75;44.65
71917;BME280;59793;46.506;6.674;2023-06-14T04:48:39;96548.09;;;18.00;44.21
71917;BME280;59793;46.506;6.674;2023-06-14T04:51:07;96555.63;;;18.32;44.06
71917;BME280;59793;46.506;6.674;2023-06-14T04:53:32;96498.84;;;18.08;44.58
71917;BME280;59793;46.506;6.674;2023-06-14T04:55:59;96545.28;;;18.61;45.56
71917;BME280;59793;46.506;6.674;2023-06-14T04:58:26;96552.09;;;18.66;44.95
71917;BME280;59793;46.506;6.674;2023-06-14T05:00:52;96515.78;;;18.49;43.87
71917;BME280;59793;46.506;6.674;2023-06-14T05:03:18;96546.50;;;18.84;45.40
71917;BME280;59793;46.506;6.674;2023-06-14T05:05:46;96563.53;;;18.90;44.75
71917;BME280;59793;46.506;6.674;2023-06-14T05:08:12;96571.28;;;19.04;44.41
71917;BME280;59793;46.506;6.674;2023-06-14T05:10:38;96566.91;;;18.94;44.57
71917;BME280;59793;46.506;6.674;2023-06-14T05:13:03;96556.44;;;19.03;44.01
71917;BME280;59793;46.506;6.674;2023-06-14T05:15:29;96560.91;;;19.10;43.84
71917;BME280;59793;46.506;6.674;2023-06-14T05:17:54;96568.28;;;19.26;43.98
71917;BME280;59793;46.506;6.674;2023-06-14T05:20:23;96566.56;;;19.16;44.14
71917;BME280;59793;46.506;6.674;2023-06-14T05:22:50;96555.88;;;19.16;43.93
71917;BME280;59793;46.506;6.674;2023-06-14T05:25:19;96545.50;;;19.18;43.90
71917;BME280;59793;46.506;6.674;2023-06-14T05:27:44;96559.50;;;19.25;43.46
71917;BME280;59793;46.506;6.674;2023-06-14T05:30:12;96527.75;;;19.07;43.79
71917;BME280;59793;46.506;6.674;2023-06-14T05:32:38;96561.97;;;19.36;43.64
71917;BME280;59793;46.506;6.674;2023-06-14T05:35:04;96575.44;;;19.29;43.85
71917;BME280;59793;46.506;6.674;2023-06-14T05:37:31;96565.53;;;19.49;44.26
71917;BME280;59793;46.506;6.674;2023-06-14T05:39:56;96576.09;;;19.56;44.20
71917;BME280;59793;46.506;6.674;2023-06-14T05:42:23;96562.91;;;19.69;42.99
71917;BME280;59793;46.506;6.674;2023-06-14T05:44:52;96554.47;;;19.71;41.79
71917;BME280;59793;46.506;6.674;2023-06-14T05:47:19;96567.47;;;19.89;41.43
71917;BME280;59793;46.506;6.674;2023-06-14T05:49:44;96575.94;;;20.03;40.63
71917;BME280;59793;46.506;6.674;2023-06-14T05:52:10;96586.06;;;20.32;41.56
71917;BME280;59793;46.506;6.674;2023-06-14T05:54:36;96518.31;;;20.19;40.83
71917;BME280;59793;46.506;6.674;2023-06-14T05:57:02;96532.41;;;20.56;40.68
71917;BME280;59793;46.506;6.674;2023-06-14T05:59:29;96586.38;;;21.16;41.70
71917;BME280;59793;46.506;6.674;2023-06-14T06:01:55;96557.81;;;20.96;40.78
71917;BME280;59793;46.506;6.674;2023-06-14T06:04:20;96581.94;;;21.25;39.33
71917;BME280;59793;46.506;6.674;2023-06-14T06:06:46;96591.06;;;21.28;38.90
71917;BME280;59793;46.506;6.674;2023-06-14T06:09:14;96588.97;;;21.36;37.96
71917;BME280;59793;46.506;6.674;2023-06-14T06:11:39;96593.91;;;21.37;39.21
71917;BME280;59793;46.506;6.674;2023-06-14T06:14:05;96597.38;;;21.51;38.46
71917;BME280;59793;46.506;6.674;2023-06-14T06:16:30;96600.81;;;21.51;39.23
71917;BME280;59793;46.506;6.674;2023-06-14T06:18:55;96605.91;;;21.62;38.62
71917;BME280;59793;46.506;6.674;2023-06-14T06:21:21;96602.81;;;21.76;36.84
71917;BME280;59793;46.506;6.674;2023-06-14T06:23:46;96592.56;;;21.87;37.09
71917;BME280;59793;46.506;6.674;2023-06-14T06:26:12;96579.47;;;21.89;37.66
71917;BME280;59793;46.506;6.674;2023-06-14T06:28:38;96601.00;;;22.15;36.22
71917;BME280;59793;46.506;6.674;2023-06-14T06:31:04;96588.31;;;22.03;35.68
71917;BME280;59793;46.506;6.674;2023-06-14T06:33:30;96595.28;;;22.13;36.05
71917;BME280;59793;46.506;6.674;2023-06-14T06:35:57;96584.16;;;22.14;36.13
71917;BME280;59793;46.506;6.674;2023-06-14T06:38:23;96599.91;;;22.12;34.33
71917;BME280;59793;46.506;6.674;2023-06-14T06:40:48;96569.75;;;21.54;32.83
71917;BME280;59793;46.506;6.674;2023-06-14T06:43:13;96595.47;;;21.80;34.19
71917;BME280;59793;46.506;6.674;2023-06-14T06:45:40;96542.19;;;21.24;34.18
71917;BME280;59793;46.506;6.674;2023-06-14T06:48:06;96519.00;;;21.17;34.62
71917;BME280;59793;46.506;6.674;2023-06-14T06:50:31;96559.91;;;21.76;34.17
71917;BME280;59793;46.506;6.674;2023-06-14T06:52:58;96553.63;;;21.95;33.72
71917;BME280;59793;46.506;6.674;2023-06-14T06:55:24;96558.88;;;22.12;33.07
71917;BME280;59793;46.506;6.674;2023-06-14T06:57:55;96596.72;;;22.30;33.31
71917;BME280;59793;46.506;6.674;2023-06-14T07:00:23;96605.06;;;22.58;31.96
71917;BME280;59793;46.506;6.674;2023-06-14T07:02:51;96534.31;;;22.13;33.64
71917;BME280;59793;46.506;6.674;2023-06-14T07:05:17;96582.44;;;22.46;32.96
71917;BME280;59793;46.506;6.674;2023-06-14T07:07:43;96590.50;;;22.21;32.46
71917;BME280;59793;46.506;6.674;2023-06-14T07:10:08;96613.59;;;22.31;32.02
71917;BME280;59793;46.506;6.674;2023-06-14T07:12:34;96578.69;;;22.18;32.39
71917;BME280;59793;46.506;6.674;2023-06-14T07:15:05;96573.00;;;22.16;32.57
71917;BME280;59793;46.506;6.674;2023-06-14T07:17:32;96614.31;;;22.31;31.32
71917;BME280;59793;46.506;6.674;2023-06-14T07:27:41;96537.75;;;22.52;31.57
71917;BME280;59793;46.506;6.674;2023-06-14T07:30:08;96545.94;;;22.49;30.57
71917;BME280;59793;46.506;6.674;2023-06-14T07:32:36;96595.06;;;22.84;30.99
71917;BME280;59793;46.506;6.674;2023-06-14T07:35:03;96626.88;;;22.98;29.82
71917;BME280;59793;46.506;6.674;2023-06-14T07:37:29;96562.78;;;22.62;30.59
71917;BME280;59793;46.506;6.674;2023-06-14T07:45:03;96631.75;;;23.60;29.32
71917;BME280;59793;46.506;6.674;2023-06-14T07:47:28;96628.63;;;23.40;32.24
71917;BME280;59793;46.506;6.674;2023-06-14T07:49:55;96634.78;;;23.49;35.08
71917;BME280;59793;46.506;6.674;2023-06-14T07:52:20;96626.69;;;23.62;34.53
71917;BME280;59793;46.506;6.674;2023-06-14T07:54:46;96581.06;;;23.14;30.26
71917;BME280;59793;46.506;6.674;2023-06-14T07:57:34;96620.47;;;23.30;30.66
71917;BME280;59793;46.506;6.674;2023-06-14T08:05:54;96517.06;;;22.87;35.38
71917;BME280;59793;46.506;6.674;2023-06-14T08:08:20;96624.13;;;23.58;35.15
71917;BME280;59793;46.506;6.674;2023-06-14T09:34:09;96650.22;;;22.63;37.45
71917;BME280;59793;46.506;6.674;2023-06-14T09:36:34;96642.78;;;22.93;37.13
71917;BME280;59793;46.506;6.674;2023-06-14T09:39:02;96640.75;;;22.97;37.54
71917;BME280;59793;46.506;6.674;2023-06-14T09:41:36;96635.88;;;23.17;35.92
71917;BME280;59793;46.506;6.674;2023-06-14T09:44:08;96640.16;;;23.27;36.81
71917;BME280;59793;46.506;6.674;2023-06-14T09:46:36;96629.00;;;23.16;38.41
71917;BME280;59793;46.506;6.674;2023-06-14T09:49:04;96585.78;;;23.45;37.54
71917;BME280;59793;46.506;6.674;2023-06-14T10:07:27;96641.41;;;23.70;39.03
71917;BME280;59793;46.506;6.674;2023-06-14T10:32:44;96636.25;;;24.60;38.18
71917;BME280;59793;46.506;6.674;2023-06-14T10:35:23;96558.38;;;24.13;34.72
71917;BME280;59793;46.506;6.674;2023-06-14T11:05:51;96633.75;;;24.13;38.14
71917;BME280;59793;46.506;6.674;2023-06-14T11:40:23;96519.34;;;24.48;37.30
71917;BME280;59793;46.506;6.674;2023-06-14T11:45:24;96553.78;;;24.53;38.56
71917;BME280;59793;46.506;6.674;2023-06-14T11:47:53;96609.03;;;25.17;40.31
71917;BME280;59793;46.506;6.674;2023-06-14T11:50:22;96518.03;;;24.62;38.81
71917;BME280;59793;46.506;6.674;2023-06-14T11:52:59;96527.19;;;24.83;39.68
71917;BME280;59793;46.506;6.674;2023-06-14T11:55:37;96605.41;;;25.57;39.83
71917;BME280;59793;46.506;6.674;2023-06-14T11:58:06;96514.47;;;24.74;38.41
71917;BME280;59793;46.506;6.674;2023-06-14T12:00:31;96574.13;;;25.41;39.55
71917;BME280;59793;46.506;6.674;2023-06-14T12:02:59;96605.47;;;26.17;40.06
71917;BME280;59793;46.506;6.674;2023-06-14T12:05:38;96606.00;;;25.70;38.58
71917;BME280;59793;46.506;6.674;2023-06-14T12:08:37;96541.44;;;25.02;34.69
71917;BME280;59793;46.506;6.674;2023-06-14T12:11:41;96566.63;;;25.17;38.07
71917;BME280;59793;46.506;6.674;2023-06-14T12:14:16;96564.38;;;25.25;35.69
71917;BME280;59793;46.506;6.674;2023-06-14T12:16:43;96595.69;;;25.32;33.39
71917;BME280;59793;46.506;6.674;2023-06-14T12:19:18;96542.47;;;25.04;39.62
71917;BME280;59793;46.506;6.674;2023-06-14T12:22:10;96589.66;;;25.73;37.63
71917;BME280;59793;46.506;6.674;2023-06-14T12:24:38;96509.69;;;25.24;37.37
71917;BME280;59793;46.506;6.674;2023-06-14T12:27:09;96603.94;;;25.56;39.00
71917;BME280;59793;46.506;6.674;2023-06-14T12:30:26;96486.94;;;24.70;39.16
71917;BME280;59793;46.506;6.674;2023-06-14T12:32:53;96593.88;;;25.47;35.39
71917;BME280;59793;46.506;6.674;2023-06-14T12:35:20;96582.22;;;25.41;33.76
71917;BME280;59793;46.506;6.674;2023-06-14T12:37:48;96560.78;;;25.37;32.33
71917;BME280;59793;46.506;6.674;2023-06-14T12:40:17;96495.19;;;25.13;35.81
71917;BME280;59793;46.506;6.674;2023-06-14T12:43:04;96505.91;;;25.59;35.01
71917;BME280;59793;46.506;6.674;2023-06-14T12:46:00;96588.28;;;26.48;37.19
71917;BME280;59793;46.506;6.674;2023-06-14T12:48:41;96501.81;;;25.82;36.33
71917;BME280;59793;46.506;6.674;2023-06-14T12:51:51;96476.97;;;25.59;35.99
71917;BME280;59793;46.506;6.674;2023-06-14T12:54:19;96597.66;;;26.62;34.17
71917;BME280;59793;46.506;6.674;2023-06-14T12:56:49;96515.81;;;26.04;31.50
71917;BME280;59793;46.506;6.674;2023-06-14T13:07:25;96586.47;;;27.26;30.76
71917;BME280;59793;46.506;6.674;2023-06-14T13:12:31;96585.03;;;27.16;32.16
71917;BME280;59793;46.506;6.674;2023-06-14T13:20:07;96553.78;;;26.91;32.27
71917;BME280;59793;46.506;6.674;2023-06-14T13:22:34;96509.34;;;26.44;36.91
71917;BME280;59793;46.506;6.674;2023-06-14T13:25:00;96489.94;;;26.45;33.49
71917;BME280;59793;46.506;6.674;2023-06-14T13:32:35;96576.16;;;26.67;28.86
71917;BME280;59793;46.506;6.674;2023-06-14T13:35:00;96515.59;;;26.50;29.78
71917;BME280;59793;46.506;6.674;2023-06-14T13:37:48;96587.28;;;27.56;29.06
71917;BME280;59793;46.506;6.674;2023-06-14T13:40:19;96501.59;;;27.00;29.24
71917;BME280;59793;46.506;6.674;2023-06-14T14:02:36;96543.63;;;26.86;32.15
71917;BME280;59793;46.506;6.674;2023-06-14T14:05:18;96489.16;;;26.78;32.61
71917;BME280;59793;46.506;6.674;2023-06-14T14:07:45;96513.25;;;27.30;32.44
71917;BME280;59793;46.506;6.674;2023-06-14T14:10:14;96559.38;;;27.65;30.99
71917;BME280;59793;46.506;6.674;2023-06-14T14:17:52;96496.38;;;27.50;31.03
71917;BME280;59793;46.506;6.674;2023-06-14T14:20:19;96521.66;;;27.47;28.12
71917;BME280;59793;46.506;6.674;2023-06-14T14:35:52;96569.44;;;28.39;27.63
71917;BME280;59793;46.506;6.674;2023-06-14T14:48:36;96568.78;;;29.46;23.76
71917;BME280;59793;46.506;6.674;2023-06-14T14:51:02;96559.16;;;29.97;24.21
71917;BME280;59793;46.506;6.674;2023-06-14T14:56:23;96524.91;;;29.53;23.28
71917;BME280;59793;46.506;6.674;2023-06-14T14:59:05;96553.66;;;29.91;14.12
71917;BME280;59793;46.506;6.674;2023-06-14T15:01:31;96538.75;;;30.13;15.97
71917;BME280;59793;46.506;6.674;2023-06-14T15:04:04;96492.00;;;30.03;11.24
71917;BME280;59793;46.506;6.674;2023-06-14T15:06:32;96501.38;;;30.02;14.23
71917;BME280;59793;46.506;6.674;2023-06-14T15:09:00;96514.25;;;30.44;13.53
71917;BME280;59793;46.506;6.674;2023-06-14T15:11:26;96541.69;;;30.89;14.28
71917;BME280;59793;46.506;6.674;2023-06-14T15:14:05;96544.19;;;31.04;14.16
71917;BME280;59793;46.506;6.674;2023-06-14T15:16:33;96518.94;;;30.92;14.30
71917;BME280;59793;46.506;6.674;2023-06-14T15:18:58;96488.72;;;30.79;13.92
71917;BME280;59793;46.506;6.674;2023-06-14T15:24:14;96508.56;;;30.97;14.42
71917;BME280;59793;46.506;6.674;2023-06-14T15:59:47;96427.53;;;30.04;13.16
71917;BME280;59793;46.506;6.674;2023-06-14T16:35:47;96536.88;;;30.73;14.18
71917;BME280;59793;46.506;6.674;2023-06-14T16:38:12;96536.75;;;30.08;15.01
71917;BME280;59793;46.506;6.674;2023-06-14T16:40:37;96510.25;;;30.02;14.67
71917;BME280;59793;46.506;6.674;2023-06-14T16:43:03;96497.34;;;29.92;14.15
71917;BME280;59793;46.506;6.674;2023-06-14T16:45:28;96544.47;;;29.83;15.67
71917;BME280;59793;46.506;6.674;2023-06-14T16:47:54;96546.66;;;29.79;15.90
71917;BME280;59793;46.506;6.674;2023-06-14T16:50:19;96520.13;;;29.42;16.04
71917;BME280;59793;46.506;6.674;2023-06-14T16:53:16;96539.41;;;29.70;16.74
71917;BME280;59793;46.506;6.674;2023-06-14T16:55:41;96529.66;;;29.58;16.34
71917;BME280;59793;46.506;6.674;2023-06-14T16:58:08;96560.47;;;29.81;16.98
71917;BME280;59793;46.506;6.674;2023-06-14T17:00:48;96498.69;;;29.44;16.57
71917;BME280;59793;46.506;6.674;2023-06-14T17:03:19;96551.03;;;30.02;16.46
71917;BME280;59793;46.506;6.674;2023-06-14T17:10:55;96566.63;;;29.76;16.46
71917;BME280;59793;46.506;6.674;2023-06-14T17:13:22;96557.13;;;29.92;16.43
71917;BME280;59793;46.506;6.674;2023-06-14T17:15:47;96572.59;;;29.80;16.91
71917;BME280;59793;46.506;6.674;2023-06-14T17:18:13;96543.06;;;29.41;16.54
71917;BME280;59793;46.506;6.674;2023-06-14T17:20:38;96575.22;;;29.48;17.75
71917;BME280;59793;46.506;6.674;2023-06-14T17:23:04;96571.91;;;29.59;16.82
71917;BME280;59793;46.506;6.674;2023-06-14T17:25:32;96557.88;;;29.40;17.27
71917;BME280;59793;46.506;6.674;2023-06-14T17:27:59;96570.38;;;29.58;15.96
71917;BME280;59793;46.506;6.674;2023-06-14T17:30:30;96599.75;;;29.80;16.99
71917;BME280;59793;46.506;6.674;2023-06-14T17:33:22;96598.81;;;29.89;16.28
71917;BME280;59793;46.506;6.674;2023-06-14T17:35:49;96567.53;;;29.47;17.42
71917;BME280;59793;46.506;6.674;2023-06-14T17:38:14;96608.03;;;29.50;17.07
71917;BME280;59793;46.506;6.674;2023-06-14T17:40:41;96517.63;;;28.92;16.57
71917;BME280;59793;46.506;6.674;2023-06-14T17:43:08;96552.16;;;29.12;17.20
71917;BME280;59793;46.506;6.674;2023-06-14T17:45:37;96566.25;;;29.16;17.92
71917;BME280;59793;46.506;6.674;2023-06-14T17:48:07;96524.94;;;28.66;18.31
71917;BME280;59793;46.506;6.674;2023-06-14T17:50:37;96593.72;;;29.24;17.82
71917;BME280;59793;46.506;6.674;2023-06-14T17:53:05;96554.25;;;29.02;18.13
71917;BME280;59793;46.506;6.674;2023-06-14T17:55:40;96618.63;;;29.22;17.99
71917;BME280;59793;46.506;6.674;2023-06-14T17:58:06;96589.53;;;29.02;18.24
71917;BME280;59793;46.506;6.674;2023-06-14T18:00:32;96622.75;;;29.18;18.24
71917;BME280;59793;46.506;6.674;2023-06-14T18:02:59;96588.31;;;28.68;18.61
71917;BME280;59793;46.506;6.674;2023-06-14T18:05:27;96592.69;;;28.80;18.98
71917;BME280;59793;46.506;6.674;2023-06-14T18:07:52;96589.88;;;28.75;18.94
71917;BME280;59793;46.506;6.674;2023-06-14T18:10:17;96618.75;;;28.78;19.42
71917;BME280;59793;46.506;6.674;2023-06-14T18:12:44;96629.34;;;28.96;19.93
71917;BME280;59793;46.506;6.674;2023-06-14T18:15:09;96601.44;;;28.55;20.90
71917;BME280;59793;46.506;6.674;2023-06-14T18:17:35;96629.31;;;28.76;21.33
71917;BME280;59793;46.506;6.674;2023-06-14T18:20:02;96640.59;;;28.54;21.29
71917;BME280;59793;46.506;6.674;2023-06-14T18:22:28;96631.19;;;28.34;21.30
71917;BME280;59793;46.506;6.674;2023-06-14T18:24:59;96627.09;;;28.09;22.38
71917;BME280;59793;46.506;6.674;2023-06-14T18:27:24;96645.56;;;28.11;23.00
71917;BME280;59793;46.506;6.674;2023-06-14T18:29:49;96645.28;;;27.94;22.36
71917;BME280;59793;46.506;6.674;2023-06-14T18:32:15;96652.00;;;27.84;21.60
71917;BME280;59793;46.506;6.674;2023-06-14T18:34:40;96628.81;;;27.68;21.72
71917;BME280;59793;46.506;6.674;2023-06-14T18:37:07;96644.81;;;27.81;22.12
71917;BME280;59793;46.506;6.674;2023-06-14T18:39:43;96628.06;;;27.53;23.06
71917;BME280;59793;46.506;6.674;2023-06-14T18:42:18;96616.41;;;27.23;22.71
71917;BME280;59793;46.506;6.674;2023-06-14T18:44:44;96578.94;;;26.58;23.36
71917;BME280;59793;46.506;6.674;2023-06-14T18:47:10;96568.53;;;26.33;24.22
71917;BME280;59793;46.506;6.674;2023-06-14T18:49:39;96640.44;;;26.63;24.32
71917;BME280;59793;46.506;6.674;2023-06-14T18:52:05;96649.25;;;26.31;25.17
71917;BME280;59793;46.506;6.674;2023-06-14T18:54:35;96605.41;;;25.66;26.23
71917;BME280;59793;46.506;6.674;2023-06-14T18:57:21;96657.13;;;25.64;26.92
71917;BME280;59793;46.506;6.674;2023-06-14T18:59:46;96636.75;;;25.36;27.63
71917;BME280;59793;46.506;6.674;2023-06-14T19:02:12;96648.19;;;24.99;28.43